Time;durP1;ratioP1;P1;durP2;ratioP2;P2;SDS_P1;SDS_P2;PMS_P1;PMS_P2;Temp;Humidity;BMP_temperature;BMP_pressure;BME280_temperature;BME280_humidity;BME280_pressure;Samples;Min_cycle;Max_cycle;Signal;HPM_P1;HPM_P2
2020/12/29 00:01:49;;;;;;;12.90;9.15;;;4.00;99.90;;;;;;5022263;28;20044;-70
2020/12/29 00:04:20;;;;;;;13.30;9.68;;;4.00;99.90;;;;;;5025069;28;20029;-70
2020/12/29 00:06:49;;;;;;;12.32;9.32;;;4.00;99.90;;;;;;5023493;28;20864;-71
2020/12/29 00:09:16;;;;;;;12.07;10.02;;;4.00;99.90;;;;;;5042150;28;20044;-71
2020/12/29 00:11:42;;;;;;;12.85;9.18;;;4.00;99.90;;;;;;5023862;28;20072;-71
2020/12/29 00:14:07;;;;;;;11.68;8.68;;;4.00;99.90;;;;;;5043328;28;20112;-70
2020/12/29 00:16:38;;;;;;;12.68;9.00;;;4.00;99.90;;;;;;5057093;28;20589;-70
2020/12/29 00:19:08;;;;;;;13.40;9.27;;;4.00;99.90;;;;;;5038031;28;20530;-71
2020/12/29 00:21:34;;;;;;;11.88;7.55;;;4.00;99.90;;;;;;5023704;28;20136;-70
2020/12/29 00:24:00;;;;;;;9.45;6.88;;;3.90;99.90;;;;;;5057832;28;20481;-70
2020/12/29 00:26:26;;;;;;;12.07;7.55;;;3.90;99.90;;;;;;5009073;28;20041;-70
2020/12/29 00:28:54;;;;;;;12.10;8.00;;;3.90;99.90;;;;;;5007689;28;20029;-70
2020/12/29 00:31:22;;;;;;;10.45;7.55;;;3.90;99.90;;;;;;5024869;28;20965;-70
2020/12/29 00:33:51;;;;;;;12.23;7.70;;;3.90;99.90;;;;;;5026908;28;20026;-70
2020/12/29 00:36:17;;;;;;;9.75;7.22;;;3.80;99.90;;;;;;4690294;28;10000574;-70
2020/12/29 00:38:48;;;;;;;10.75;7.85;;;3.80;99.90;;;;;;5022794;28;20554;-70
2020/12/29 00:41:16;;;;;;;9.80;6.70;;;3.80;99.90;;;;;;5051915;28;20044;-70
2020/12/29 00:43:42;;;;;;;9.05;6.60;;;3.70;99.90;;;;;;5054552;28;20038;-71
2020/12/29 00:46:15;;;;;;;9.38;6.65;;;3.70;99.90;;;;;;5005776;28;20030;-70
2020/12/29 00:48:43;;;;;;;9.18;6.40;;;3.70;99.90;;;;;;5042303;28;20045;-70
2020/12/29 00:51:11;;;;;;;8.30;6.47;;;3.70;99.90;;;;;;5056813;28;20033;-70
2020/12/29 00:53:37;;;;;;;8.02;6.25;;;3.70;99.90;;;;;;5023004;28;20033;-70
2020/12/29 00:56:03;;;;;;;8.80;6.72;;;3.70;99.90;;;;;;5023547;28;20022;-70
2020/12/29 00:58:28;;;;;;;8.80;6.85;;;3.70;99.90;;;;;;5025900;28;20535;-70
2020/12/29 01:00:57;;;;;;;8.55;6.00;;;3.60;99.90;;;;;;5028383;28;20022;-70
2020/12/29 01:03:24;;;;;;;10.18;7.05;;;3.60;99.90;;;;;;5027264;28;20040;-70
2020/12/29 01:05:52;;;;;;;7.43;5.50;;;3.60;99.90;;;;;;5026654;28;20100;-71
2020/12/29 01:08:20;;;;;;;8.70;5.70;;;3.50;99.90;;;;;;5028273;28;20049;-70
2020/12/29 01:10:50;;;;;;;8.13;6.05;;;3.50;99.90;;;;;;5042546;28;20022;-70
2020/12/29 01:13:16;;;;;;;7.75;5.82;;;3.50;99.90;;;;;;5039431;28;20021;-71
2020/12/29 01:15:44;;;;;;;7.07;5.28;;;3.40;99.90;;;;;;5025133;28;20056;-70
2020/12/29 01:18:09;;;;;;;7.65;5.40;;;3.40;99.90;;;;;;5027892;28;20044;-70
2020/12/29 01:20:35;;;;;;;8.88;6.32;;;3.40;99.90;;;;;;5026592;28;20025;-71
2020/12/29 01:23:03;;;;;;;7.82;5.55;;;3.40;99.90;;;;;;5025027;28;20450;-71
2020/12/29 01:25:29;;;;;;;7.55;5.68;;;3.40;99.90;;;;;;5027303;28;20029;-71
2020/12/29 01:27:54;;;;;;;7.97;5.63;;;3.40;99.90;;;;;;5059565;28;20508;-71
2020/12/29 01:30:20;;;;;;;7.82;5.32;;;3.50;99.90;;;;;;5043490;28;20060;-71
2020/12/29 01:32:46;;;;;;;7.30;5.30;;;3.40;99.90;;;;;;5025340;28;20029;-70
2020/12/29 01:35:14;;;;;;;7.65;4.82;;;3.40;99.90;;;;;;5042339;28;20025;-70
2020/12/29 01:37:43;;;;;;;7.15;4.70;;;3.40;99.90;;;;;;5025006;28;20040;-70
2020/12/29 01:40:10;;;;;;;5.95;4.15;;;3.40;99.90;;;;;;5039698;28;20040;-70
2020/12/29 01:42:36;;;;;;;9.05;5.03;;;3.40;99.90;;;;;;5023505;28;20029;-70
2020/12/29 01:45:08;;;;;;;5.65;3.75;;;3.40;99.90;;;;;;5024760;28;20018;-70
2020/12/29 01:47:38;;;;;;;6.38;4.30;;;3.30;99.90;;;;;;5042000;28;20067;-70
2020/12/29 01:50:14;;;;;;;7.47;4.53;;;3.30;99.90;;;;;;5056749;28;20049;-70
2020/12/29 01:52:40;;;;;;;6.07;4.22;;;3.20;99.90;;;;;;5054695;28;20052;-70
2020/12/29 01:55:06;;;;;;;7.93;4.40;;;3.20;99.90;;;;;;5058069;28;20863;-70
2020/12/29 01:57:35;;;;;;;10.23;6.28;;;3.20;99.90;;;;;;5022989;28;20021;-70
2020/12/29 02:00:07;;;;;;;8.85;5.80;;;3.20;99.90;;;;;;5025519;28;20033;-70
2020/12/29 02:02:33;;;;;;;6.63;4.60;;;3.10;99.90;;;;;;5057840;28;20033;-70
2020/12/29 02:05:01;;;;;;;6.85;4.65;;;3.10;99.90;;;;;;5026475;28;20393;-69
2020/12/29 02:07:27;;;;;;;6.13;4.20;;;3.10;99.90;;;;;;5025796;28;20589;-69
2020/12/29 02:09:53;;;;;;;7.72;4.43;;;3.10;99.90;;;;;;5057800;28;20113;-70
2020/12/29 02:12:27;;;;;;;6.07;4.40;;;3.10;99.90;;;;;;5025392;28;20029;-69
2020/12/29 02:14:52;;;;;;;6.22;4.32;;;3.20;99.90;;;;;;5057074;28;20425;-69
2020/12/29 02:17:18;;;;;;;7.13;4.15;;;3.10;99.90;;;;;;5058351;28;20026;-69
2020/12/29 02:19:44;;;;;;;6.70;4.40;;;3.10;99.90;;;;;;5024316;28;20472;-70
2020/12/29 02:22:10;;;;;;;6.93;5.00;;;3.10;99.90;;;;;;5054881;28;20413;-69
2020/12/29 02:24:36;;;;;;;6.57;4.65;;;3.10;99.90;;;;;;5009671;28;20626;-69
2020/12/29 02:27:07;;;;;;;7.07;4.40;;;3.20;99.90;;;;;;5025121;28;20040;-69
2020/12/29 02:29:33;;;;;;;6.70;4.38;;;3.20;99.90;;;;;;5025210;28;20080;-69
2020/12/29 02:31:59;;;;;;;6.68;4.63;;;3.20;99.90;;;;;;5041593;28;20021;-69
2020/12/29 02:34:26;;;;;;;6.10;4.13;;;3.20;99.90;;;;;;5025165;28;20034;-69
2020/12/29 02:36:52;;;;;;;6.30;4.50;;;3.20;99.90;;;;;;5024097;28;21540;-69
2020/12/29 02:39:17;;;;;;;7.38;5.18;;;3.20;99.90;;;;;;5025855;28;20477;-70
2020/12/29 02:41:45;;;;;;;6.22;4.13;;;3.20;99.90;;;;;;5023918;28;20115;-69
2020/12/29 02:44:12;;;;;;;6.97;4.70;;;3.20;99.90;;;;;;5039722;28;20528;-69
2020/12/29 02:46:38;;;;;;;6.45;4.35;;;3.20;99.90;;;;;;5039722;28;20032;-69
2020/12/29 02:49:08;;;;;;;6.28;4.00;;;3.20;99.90;;;;;;5056488;28;20037;-69
2020/12/29 02:51:36;;;;;;;6.57;4.65;;;3.20;99.90;;;;;;5024787;28;20057;-69
2020/12/29 02:54:02;;;;;;;6.15;4.32;;;3.20;99.90;;;;;;5025627;28;20047;-69
2020/12/29 02:56:27;;;;;;;7.00;4.53;;;3.20;99.90;;;;;;5024246;28;20025;-69
2020/12/29 02:58:55;;;;;;;6.35;4.10;;;3.20;99.90;;;;;;5025513;28;20036;-69
2020/12/29 03:01:27;;;;;;;5.82;3.88;;;3.20;99.90;;;;;;5022875;28;20029;-69
2020/12/29 03:03:55;;;;;;;5.70;3.75;;;3.20;99.90;;;;;;5055136;28;20080;-69
2020/12/29 03:06:24;;;;;;;5.88;3.90;;;3.20;99.90;;;;;;5055212;28;20033;-69
2020/12/29 03:08:50;;;;;;;6.57;4.07;;;3.20;99.90;;;;;;5023522;28;20029;-69
2020/12/29 03:11:33;;;;;;;6.45;4.20;;;3.20;99.90;;;;;;5025001;28;20466;-69
2020/12/29 03:14:02;;;;;;;6.35;4.40;;;3.20;99.90;;;;;;5054299;28;20037;-69
2020/12/29 03:16:28;;;;;;;6.70;4.28;;;3.20;99.90;;;;;;5026367;28;20117;-69
2020/12/29 03:18:54;;;;;;;5.70;3.90;;;3.20;99.90;;;;;;5065149;28;20108;-69
2020/12/29 03:21:22;;;;;;;6.35;4.35;;;3.20;99.90;;;;;;5031491;28;20041;-69
2020/12/29 03:23:48;;;;;;;7.10;4.45;;;3.20;99.90;;;;;;4335582;28;10000829;-70
2020/12/29 03:26:16;;;;;;;6.00;4.20;;;3.20;99.90;;;;;;5030484;28;20029;-69
2020/12/29 03:28:41;;;;;;;6.32;3.92;;;3.20;99.90;;;;;;5031492;28;20080;-70
2020/12/29 03:31:11;;;;;;;7.07;3.90;;;3.20;99.90;;;;;;5045897;28;20053;-70
2020/12/29 03:33:37;;;;;;;6.07;3.90;;;3.20;99.90;;;;;;5028792;28;20040;-70
2020/12/29 03:36:05;;;;;;;6.15;3.90;;;3.10;99.90;;;;;;5029817;28;20596;-70
2020/12/29 03:38:33;;;;;;;5.93;3.90;;;3.20;99.90;;;;;;5029427;28;20087;-70
2020/12/29 03:41:01;;;;;;;5.82;3.85;;;3.20;99.90;;;;;;5031773;28;20021;-70
2020/12/29 03:43:27;;;;;;;5.60;3.72;;;3.20;99.90;;;;;;5030166;28;20045;-70
2020/12/29 03:45:55;;;;;;;5.78;3.83;;;3.10;99.90;;;;;;5029966;28;20042;-70
2020/12/29 03:48:23;;;;;;;7.15;4.63;;;3.10;99.90;;;;;;5031538;28;20037;-70
2020/12/29 03:50:52;;;;;;;6.40;4.32;;;3.10;99.90;;;;;;5030879;28;20858;-70
2020/12/29 03:53:18;;;;;;;7.70;4.57;;;3.10;99.90;;;;;;5047706;28;20057;-70
2020/12/29 03:55:48;;;;;;;6.43;4.20;;;3.20;99.90;;;;;;5030949;28;20017;-70
2020/12/29 03:58:14;;;;;;;7.53;4.90;;;3.10;99.90;;;;;;5015792;28;20106;-70
2020/12/29 04:00:40;;;;;;;6.15;4.18;;;3.10;99.90;;;;;;5041452;28;20029;-71
2020/12/29 04:03:05;;;;;;;7.80;4.80;;;3.10;99.90;;;;;;5029515;28;20542;-71
2020/12/29 04:05:31;;;;;;;6.55;4.07;;;3.10;99.90;;;;;;5029712;28;20064;-71
2020/12/29 04:07:57;;;;;;;7.25;4.65;;;3.20;99.90;;;;;;5029393;28;20596;-71
2020/12/29 04:10:25;;;;;;;6.93;4.60;;;3.20;99.90;;;;;;5029684;28;20029;-71
2020/12/29 04:12:51;;;;;;;7.53;5.13;;;3.20;99.90;;;;;;5029942;28;20622;-72
2020/12/29 04:15:19;;;;;;;6.93;4.78;;;3.20;99.90;;;;;;5028156;28;20050;-72
2020/12/29 04:17:45;;;;;;;7.15;4.85;;;3.20;99.90;;;;;;5030114;28;20025;-72
2020/12/29 04:20:12;;;;;;;7.40;5.05;;;3.20;99.90;;;;;;5030560;28;20017;-72
2020/12/29 04:22:38;;;;;;;6.95;4.68;;;3.10;99.90;;;;;;5029641;28;20021;-72
2020/12/29 04:25:07;;;;;;;7.45;4.63;;;3.10;99.90;;;;;;5032313;28;20022;-73
2020/12/29 04:27:41;;;;;;;7.35;4.85;;;3.10;99.90;;;;;;5044005;28;20025;-72
2020/12/29 04:30:09;;;;;;;6.80;4.60;;;3.20;99.90;;;;;;5026524;28;20033;-73
2020/12/29 04:32:39;;;;;;;7.38;4.78;;;3.10;99.90;;;;;;5028352;28;20064;-73
2020/12/29 04:35:05;;;;;;;7.30;4.93;;;3.10;99.90;;;;;;5057960;28;20036;-72
2020/12/29 04:37:31;;;;;;;7.20;5.05;;;3.10;99.90;;;;;;5059075;28;20160;-72
2020/12/29 04:39:57;;;;;;;7.65;5.28;;;3.20;99.90;;;;;;5012628;28;20112;-72
2020/12/29 04:42:23;;;;;;;7.80;5.10;;;3.20;99.90;;;;;;5028037;28;20037;-73
2020/12/29 04:44:52;;;;;;;7.38;5.13;;;3.10;99.90;;;;;;5027780;28;20045;-72
2020/12/29 04:47:20;;;;;;;7.75;5.35;;;3.10;99.90;;;;;;5059012;28;20032;-72
2020/12/29 04:49:45;;;;;;;7.30;4.80;;;3.10;99.90;;;;;;5058100;28;20057;-72
2020/12/29 04:52:11;;;;;;;8.07;5.50;;;3.10;99.90;;;;;;5057732;28;20209;-72
2020/12/29 04:54:38;;;;;;;8.68;5.32;;;3.20;99.90;;;;;;5041082;28;20082;-72
2020/12/29 04:57:08;;;;;;;7.95;5.50;;;3.10;99.90;;;;;;5025302;28;20025;-71
2020/12/29 04:59:36;;;;;;;8.43;5.38;;;3.10;99.90;;;;;;5025708;28;20406;-71
2020/12/29 05:02:05;;;;;;;9.77;5.93;;;3.10;99.90;;;;;;5025640;28;20030;-72
2020/12/29 05:04:30;;;;;;;8.35;5.38;;;3.10;99.90;;;;;;5025439;28;20029;-71
2020/12/29 05:06:56;;;;;;;8.20;5.32;;;3.10;99.90;;;;;;5057924;28;20336;-72
2020/12/29 05:09:23;;;;;;;8.32;5.35;;;3.10;99.90;;;;;;5024713;28;20096;-71
2020/12/29 05:11:49;;;;;;;9.13;5.50;;;3.10;99.90;;;;;;5022845;28;20033;-71
2020/12/29 05:14:14;;;;;;;7.93;5.18;;;3.10;99.90;;;;;;5024947;28;20029;-71
2020/12/29 05:16:42;;;;;;;8.38;5.20;;;3.10;99.90;;;;;;5025281;28;20034;-71
2020/12/29 05:19:18;;;;;;;8.18;5.50;;;3.20;99.90;;;;;;5025055;28;20502;-71
2020/12/29 05:21:44;;;;;;;7.20;4.45;;;3.10;99.90;;;;;;5010806;28;20158;-72
2020/12/29 05:24:16;;;;;;;7.70;4.75;;;3.10;99.90;;;;;;5026041;28;20247;-71
2020/12/29 05:26:43;;;;;;;7.22;4.63;;;3.10;99.90;;;;;;5024697;28;20493;-72
2020/12/29 05:29:13;;;;;;;6.35;4.05;;;3.20;99.90;;;;;;5024198;28;20033;-72
2020/12/29 05:31:43;;;;;;;7.68;4.70;;;3.10;99.90;;;;;;5023763;28;20064;-72
2020/12/29 05:34:26;;;;;;;7.22;4.70;;;3.10;99.90;;;;;;5025583;28;20021;-72
2020/12/29 05:36:55;;;;;;;8.15;4.47;;;3.20;99.90;;;;;;5026588;28;20021;-72
2020/12/29 05:39:23;;;;;;;7.03;4.40;;;3.20;99.90;;;;;;5026244;28;20079;-72
2020/12/29 05:41:50;;;;;;;7.65;4.70;;;3.10;99.90;;;;;;5025483;28;20057;-72
2020/12/29 05:44:29;;;;;;;6.63;4.15;;;3.20;99.90;;;;;;5024418;28;20026;-71
2020/12/29 05:46:57;;;;;;;7.38;4.60;;;3.20;99.90;;;;;;5025065;28;20160;-71
2020/12/29 05:49:26;;;;;;;8.00;5.10;;;3.10;99.90;;;;;;5057414;28;20107;-71
2020/12/29 05:51:55;;;;;;;7.95;5.32;;;3.10;99.90;;;;;;5039496;28;20025;-71
2020/12/29 05:54:24;;;;;;;8.25;5.22;;;3.10;99.90;;;;;;5027247;28;20040;-71
2020/12/29 05:56:53;;;;;;;6.80;4.78;;;3.10;99.90;;;;;;5057584;28;20664;-71
2020/12/29 05:59:19;;;;;;;7.05;4.72;;;3.10;99.90;;;;;;5057168;28;20025;-71
2020/12/29 06:01:52;;;;;;;7.35;5.00;;;3.10;99.90;;;;;;5025932;28;20033;-71
2020/12/29 06:04:17;;;;;;;7.20;4.38;;;3.00;99.90;;;;;;5054201;28;20034;-70
2020/12/29 06:06:47;;;;;;;8.50;4.78;;;3.00;99.90;;;;;;5024154;28;20372;-71
2020/12/29 06:09:16;;;;;;;5.65;3.90;;;3.00;99.90;;;;;;5037757;28;20359;-71
2020/12/29 06:11:48;;;;;;;6.35;4.38;;;3.00;99.90;;;;;;5039147;28;20038;-70
2020/12/29 06:14:16;;;;;;;5.53;3.78;;;3.00;99.90;;;;;;5025293;28;20033;-70
2020/12/29 06:16:45;;;;;;;5.53;3.53;;;2.90;99.90;;;;;;5026240;28;20075;-70
2020/12/29 06:19:29;;;;;;;6.90;4.15;;;3.00;99.90;;;;;;5025431;28;20052;-71
2020/12/29 06:22:07;;;;;;;6.45;3.70;;;2.90;99.90;;;;;;5056017;28;20018;-70
2020/12/29 06:24:36;;;;;;;5.82;3.67;;;2.90;99.90;;;;;;5057576;28;20504;-70
2020/12/29 06:27:06;;;;;;;5.60;3.40;;;2.90;99.90;;;;;;5011206;28;20025;-71
2020/12/29 06:29:36;;;;;;;5.00;3.30;;;2.90;99.90;;;;;;5024777;28;20551;-71
2020/12/29 06:32:13;;;;;;;5.10;3.60;;;2.90;99.90;;;;;;5025652;28;20051;-71
2020/12/29 06:34:41;;;;;;;6.05;3.42;;;2.90;99.90;;;;;;5025068;28;20076;-71
2020/12/29 06:37:19;;;;;;;6.72;3.90;;;2.90;99.90;;;;;;5056180;28;20045;-71
2020/12/29 06:39:49;;;;;;;5.90;3.95;;;2.90;99.90;;;;;;5054980;28;20085;-72
2020/12/29 06:42:15;;;;;;;6.68;4.47;;;2.90;99.90;;;;;;5023521;28;20053;-73
2020/12/29 06:44:43;;;;;;;7.57;4.40;;;2.90;99.90;;;;;;5042563;28;20052;-72
2020/12/29 06:47:11;;;;;;;7.28;4.15;;;2.80;99.90;;;;;;5039243;28;20068;-73
2020/12/29 06:49:43;;;;;;;5.85;4.07;;;2.80;99.90;;;;;;5037998;28;20040;-73
2020/12/29 06:52:30;;;;;;;6.38;4.13;;;2.90;99.90;;;;;;5025208;28;20044;-72
2020/12/29 06:55:00;;;;;;;6.30;4.10;;;2.90;99.90;;;;;;5024900;28;20030;-72
2020/12/29 06:57:38;;;;;;;6.82;4.00;;;2.90;99.90;;;;;;5025097;28;20097;-72
2020/12/29 07:00:13;;;;;;;6.50;4.13;;;2.90;99.90;;;;;;5023196;28;20045;-72
2020/12/29 07:02:41;;;;;;;5.07;3.40;;;2.90;99.90;;;;;;5024497;28;20100;-72
2020/12/29 07:05:26;;;;;;;6.38;2.95;;;2.80;99.90;;;;;;5038588;28;20054;-72
2020/12/29 07:08:06;;;;;;;5.47;3.38;;;2.90;99.90;;;;;;5056787;28;20443;-72
2020/12/29 07:10:38;;;;;;;5.22;2.65;;;2.80;99.90;;;;;;5056476;28;20026;-72
2020/12/29 07:13:11;;;;;;;4.85;2.47;;;2.80;99.90;;;;;;5024173;28;20037;-73
2020/12/29 07:16:03;;;;;;;4.80;2.70;;;2.80;99.90;;;;;;5024991;28;20223;-72
2020/12/29 07:18:29;;;;;;;4.10;2.15;;;2.90;99.90;;;;;;5051816;28;20033;-72
2020/12/29 07:20:58;;;;;;;4.00;2.50;;;2.80;99.90;;;;;;5024963;28;20040;-72
2020/12/29 07:23:30;;;;;;;3.15;1.98;;;2.80;99.90;;;;;;5056053;28;20026;-73
2020/12/29 07:25:59;;;;;;;3.20;1.95;;;2.70;99.90;;;;;;5037718;28;20234;-73
2020/12/29 07:28:26;;;;;;;3.40;1.65;;;2.80;99.90;;;;;;5025122;28;20120;-72
2020/12/29 07:30:51;;;;;;;2.92;1.70;;;2.80;99.90;;;;;;5024010;28;20037;-72
2020/12/29 07:33:21;;;;;;;3.25;1.85;;;2.80;99.90;;;;;;5023450;28;20025;-72
2020/12/29 07:35:46;;;;;;;2.25;1.48;;;2.80;99.90;;;;;;5024278;28;20024;-73
2020/12/29 07:38:20;;;;;;;2.40;1.50;;;2.70;99.90;;;;;;5058152;28;20029;-73
2020/12/29 07:40:50;;;;;;;2.00;1.40;;;2.80;99.90;;;;;;5006342;28;20087;-73
2020/12/29 07:43:18;;;;;;;1.48;1.20;;;2.70;99.90;;;;;;5024602;28;20040;-73
2020/12/29 07:45:44;;;;;;;1.58;1.30;;;2.80;99.90;;;;;;5024527;28;20044;-73
2020/12/29 07:48:09;;;;;;;2.40;1.30;;;2.70;99.90;;;;;;5025440;28;20038;-73
2020/12/29 07:50:36;;;;;;;2.13;1.40;;;2.80;99.90;;;;;;5056103;28;20026;-73
2020/12/29 07:53:02;;;;;;;2.63;1.67;;;2.80;99.90;;;;;;5022443;28;20068;-73
2020/12/29 07:55:28;;;;;;;4.15;1.60;;;2.80;99.90;;;;;;5024679;28;20060;-74
2020/12/29 07:58:00;;;;;;;3.35;1.55;;;2.80;99.90;;;;;;5024660;28;20053;-74
2020/12/29 08:00:25;;;;;;;3.20;1.60;;;2.80;99.90;;;;;;5052988;28;20148;-74
2020/12/29 08:02:54;;;;;;;2.25;1.50;;;2.90;99.90;;;;;;5022479;28;20105;-74
2020/12/29 08:05:20;;;;;;;2.50;1.60;;;3.00;99.90;;;;;;5026919;28;20112;-74
2020/12/29 08:08:13;;;;;;;2.50;1.50;;;3.00;99.90;;;;;;5028259;28;20029;-74
2020/12/29 08:10:40;;;;;;;2.40;1.63;;;3.00;99.90;;;;;;5026948;28;20056;-74
2020/12/29 08:13:09;;;;;;;2.35;1.30;;;3.00;99.90;;;;;;5058891;28;20057;-74
2020/12/29 08:15:44;;;;;;;3.20;1.80;;;3.00;99.90;;;;;;5056342;28;20184;-73
2020/12/29 08:18:19;;;;;;;3.38;1.88;;;3.10;99.90;;;;;;5024227;28;20306;-74
2020/12/29 08:20:56;;;;;;;2.63;1.70;;;3.10;99.90;;;;;;5027228;28;20633;-73
2020/12/29 08:23:23;;;;;;;2.53;1.67;;;3.10;99.90;;;;;;5024833;28;20052;-73
2020/12/29 08:25:58;;;;;;;4.00;1.83;;;3.10;99.90;;;;;;5039780;28;20575;-73
2020/12/29 08:28:29;;;;;;;3.15;2.00;;;3.10;99.90;;;;;;5029180;28;20467;-73
2020/12/29 08:30:55;;;;;;;3.58;1.92;;;3.10;99.90;;;;;;5027334;28;20026;-73
2020/12/29 08:33:24;;;;;;;4.15;2.00;;;3.10;99.90;;;;;;5024764;28;20068;-73
2020/12/29 08:35:51;;;;;;;4.72;2.10;;;3.10;99.90;;;;;;5028990;28;20026;-72
2020/12/29 08:38:35;;;;;;;3.42;2.10;;;3.10;99.90;;;;;;5042167;28;20018;-72
2020/12/29 08:41:12;;;;;;;3.25;2.05;;;3.10;99.90;;;;;;5028185;28;20033;-72
2020/12/29 08:43:47;;;;;;;3.63;2.10;;;3.20;99.90;;;;;;5026945;28;20027;-72
2020/12/29 08:46:14;;;;;;;3.90;2.28;;;3.20;99.90;;;;;;5027815;28;20045;-72
2020/12/29 08:48:41;;;;;;;3.97;2.40;;;3.20;99.90;;;;;;5027316;28;20034;-72
2020/12/29 08:51:20;;;;;;;4.38;2.35;;;3.20;99.90;;;;;;5059373;28;20144;-72
2020/12/29 08:53:49;;;;;;;4.07;2.30;;;3.20;99.90;;;;;;5041851;28;20069;-72
2020/12/29 08:56:26;;;;;;;4.65;2.58;;;3.20;99.90;;;;;;5024704;28;20117;-72
2020/12/29 08:58:53;;;;;;;4.97;2.83;;;3.20;99.90;;;;;;5026852;28;20057;-72
2020/12/29 09:01:43;;;;;;;5.72;3.25;;;3.30;99.90;;;;;;5025199;28;20025;-72
2020/12/29 09:04:43;;;;;;;4.25;2.78;;;3.30;99.90;;;;;;5022429;28;20061;-72
2020/12/29 09:07:12;;;;;;;5.85;3.10;;;3.30;99.90;;;;;;5038764;28;20022;-70
2020/12/29 09:10:07;;;;;;;5.70;3.20;;;3.40;99.90;;;;;;5024836;28;20033;-70
2020/12/29 09:12:36;;;;;;;4.25;2.63;;;3.40;99.90;;;;;;5022639;28;20619;-70
2020/12/29 09:15:07;;;;;;;5.40;3.00;;;3.40;99.90;;;;;;5057949;28;20124;-70
2020/12/29 09:17:35;;;;;;;5.28;2.90;;;3.50;99.90;;;;;;5023522;28;20038;-70
2020/12/29 09:20:23;;;;;;;4.95;2.88;;;3.50;99.90;;;;;;5012349;28;20140;-70
2020/12/29 09:22:55;;;;;;;4.47;2.78;;;3.50;99.90;;;;;;5009195;28;20459;-70
2020/12/29 09:25:25;;;;;;;5.32;3.10;;;3.50;99.90;;;;;;5024792;28;20719;-70
2020/12/29 09:28:27;;;;;;;4.75;2.95;;;3.50;99.90;;;;;;5026005;28;20025;-70
2020/12/29 09:31:00;;;;;;;4.75;3.08;;;3.60;99.90;;;;;;5057251;28;20451;-70
2020/12/29 09:33:27;;;;;;;5.38;3.65;;;3.60;99.90;;;;;;5024838;28;20064;-70
2020/12/29 09:35:53;;;;;;;6.22;3.88;;;3.60;99.90;;;;;;5040989;28;20025;-70
2020/12/29 09:38:19;;;;;;;7.35;4.25;;;3.60;99.90;;;;;;5026455;28;20049;-70
2020/12/29 09:40:45;;;;;;;5.85;4.18;;;3.60;99.90;;;;;;5058524;28;20036;-70
2020/12/29 09:43:12;;;;;;;6.55;4.25;;;3.60;99.90;;;;;;5025242;28;20037;-72
2020/12/29 09:45:37;;;;;;;7.10;4.40;;;3.60;99.90;;;;;;5010988;28;20138;-72
2020/12/29 09:48:03;;;;;;;6.38;3.45;;;3.70;99.90;;;;;;5027071;28;20113;-71
2020/12/29 09:50:29;;;;;;;6.47;3.83;;;3.70;99.90;;;;;;5026041;28;20069;-72
2020/12/29 09:52:54;;;;;;;7.72;4.25;;;3.70;99.90;;;;;;5058541;28;20033;-72
2020/12/29 09:55:22;;;;;;;5.30;3.58;;;3.70;99.90;;;;;;5027577;28;20072;-72
2020/12/29 09:57:48;;;;;;;6.63;4.10;;;3.70;99.90;;;;;;5025923;28;20033;-72
2020/12/29 10:00:14;;;;;;;6.38;3.53;;;3.70;99.90;;;;;;5042833;28;20030;-72
2020/12/29 10:02:39;;;;;;;6.13;3.70;;;3.70;99.90;;;;;;5027274;28;20111;-72
2020/12/29 10:05:05;;;;;;;6.25;3.90;;;3.70;99.90;;;;;;5025158;28;20025;-72
2020/12/29 10:07:33;;;;;;;5.78;3.75;;;3.70;99.90;;;;;;5026491;28;20032;-72
2020/12/29 10:09:58;;;;;;;5.68;3.78;;;3.80;99.90;;;;;;5026347;28;20160;-72
2020/12/29 10:12:26;;;;;;;5.90;3.90;;;3.70;99.90;;;;;;5025378;28;20108;-72
2020/12/29 10:14:52;;;;;;;7.15;4.18;;;3.70;99.90;;;;;;5026608;28;20094;-72
2020/12/29 10:17:18;;;;;;;8.82;4.22;;;3.80;99.90;;;;;;5039199;28;20034;-72
2020/12/29 10:19:44;;;;;;;7.15;4.50;;;3.80;99.90;;;;;;5027163;28;20336;-72
2020/12/29 10:22:12;;;;;;;7.95;4.75;;;3.80;99.90;;;;;;5039949;28;20718;-73
2020/12/29 10:24:39;;;;;;;8.00;4.85;;;3.80;99.90;;;;;;5026539;28;20142;-73
2020/12/29 10:27:04;;;;;;;7.20;5.03;;;3.80;99.90;;;;;;5023660;28;20044;-72
2020/12/29 10:29:30;;;;;;;7.95;4.68;;;3.80;99.90;;;;;;5024266;28;20029;-72
2020/12/29 10:32:03;;;;;;;7.93;4.60;;;3.90;99.90;;;;;;5025535;28;20486;-72
2020/12/29 10:34:29;;;;;;;7.95;4.88;;;3.90;99.90;;;;;;5025173;28;20120;-71
2020/12/29 10:36:54;;;;;;;7.65;5.10;;;3.90;99.90;;;;;;5025189;28;20151;-72
2020/12/29 10:39:22;;;;;;;8.55;5.32;;;3.90;99.90;;;;;;5024702;28;20212;-72
2020/12/29 10:41:50;;;;;;;10.05;6.07;;;3.90;99.90;;;;;;5025787;28;20021;-72
2020/12/29 10:44:16;;;;;;;8.23;5.55;;;3.90;99.90;;;;;;5023782;28;20025;-72
2020/12/29 10:46:48;;;;;;;9.88;5.90;;;3.80;99.90;;;;;;5040646;28;20030;-72
2020/12/29 10:49:14;;;;;;;8.82;5.95;;;3.80;99.90;;;;;;5023288;28;20062;-73
2020/12/29 10:51:40;;;;;;;8.23;5.85;;;3.90;99.90;;;;;;5024724;28;20033;-73
2020/12/29 10:54:07;;;;;;;8.05;5.63;;;3.90;99.90;;;;;;5023639;28;20033;-72
2020/12/29 10:56:36;;;;;;;7.72;5.70;;;4.00;99.90;;;;;;5025819;28;20087;-72
2020/12/29 10:59:07;;;;;;;10.15;5.75;;;4.00;99.90;;;;;;5024786;28;20087;-72
2020/12/29 11:01:35;;;;;;;7.63;5.45;;;4.00;99.90;;;;;;5026206;28;20021;-72
2020/12/29 11:04:01;;;;;;;8.30;5.50;;;4.10;99.90;;;;;;5056032;28;20021;-72
2020/12/29 11:06:27;;;;;;;8.80;5.47;;;4.10;99.90;;;;;;5022837;28;20426;-72
2020/12/29 11:08:52;;;;;;;8.60;5.57;;;4.10;99.90;;;;;;5054728;28;20044;-71
2020/12/29 11:11:18;;;;;;;7.90;5.13;;;4.10;99.90;;;;;;5024931;28;20040;-71
2020/12/29 11:13:47;;;;;;;9.13;5.85;;;4.10;99.90;;;;;;5022548;28;20029;-72
2020/12/29 11:16:19;;;;;;;7.93;5.30;;;4.20;99.90;;;;;;5024259;28;20042;-71
2020/12/29 11:18:48;;;;;;;9.77;5.50;;;4.10;99.90;;;;;;5023002;28;20465;-71
2020/12/29 11:21:16;;;;;;;8.65;5.60;;;4.20;99.90;;;;;;5036309;28;20037;-71
2020/12/29 11:23:44;;;;;;;8.02;5.10;;;4.20;99.90;;;;;;4328841;28;10000580;-73
2020/12/29 11:26:16;;;;;;;8.07;5.63;;;4.20;99.90;;;;;;5022715;28;20083;-73
2020/12/29 11:28:44;;;;;;;6.30;4.22;;;4.20;99.90;;;;;;5054557;28;20430;-74
2020/12/29 11:31:20;;;;;;;8.48;5.22;;;4.20;99.90;;;;;;5019309;28;20034;-73
2020/12/29 11:33:48;;;;;;;8.82;5.43;;;4.20;99.90;;;;;;5055034;28;20110;-73
2020/12/29 11:36:20;;;;;;;9.30;5.88;;;4.20;99.90;;;;;;5054557;28;20014;-73
2020/12/29 11:38:46;;;;;;;9.23;4.95;;;4.10;99.90;;;;;;5027344;28;20083;-73
2020/12/29 11:41:11;;;;;;;9.43;5.63;;;4.20;99.90;;;;;;5027600;28;20105;-73
2020/12/29 11:43:37;;;;;;;9.27;5.32;;;4.20;99.90;;;;;;5058560;28;20153;-73
2020/12/29 11:46:09;;;;;;;7.60;5.00;;;4.20;99.90;;;;;;5027727;28;20021;-73
2020/12/29 11:48:35;;;;;;;7.43;5.07;;;4.20;99.90;;;;;;5059087;28;20034;-73
2020/12/29 11:51:03;;;;;;;8.63;5.18;;;4.20;99.90;;;;;;5041123;28;20335;-73
2020/12/29 11:53:29;;;;;;;8.68;5.22;;;4.30;99.90;;;;;;5040399;28;20084;-73
2020/12/29 11:55:54;;;;;;;8.30;5.05;;;4.30;99.90;;;;;;5026777;28;20025;-73
2020/12/29 11:58:20;;;;;;;9.68;5.32;;;4.30;99.90;;;;;;5039272;28;20029;-73
2020/12/29 12:00:48;;;;;;;8.48;4.60;;;4.30;99.90;;;;;;5026727;28;20014;-73
2020/12/29 12:03:14;;;;;;;9.77;5.25;;;4.30;99.90;;;;;;5026198;28;20026;-73
2020/12/29 12:05:39;;;;;;;7.93;4.70;;;4.30;99.90;;;;;;5021555;28;20640;-73
2020/12/29 12:08:05;;;;;;;8.50;4.90;;;4.30;99.90;;;;;;5059884;28;20037;-73
2020/12/29 12:10:31;;;;;;;7.70;4.95;;;4.30;99.90;;;;;;5038959;28;20120;-73
2020/12/29 12:12:59;;;;;;;9.05;5.07;;;4.30;99.90;;;;;;5057602;28;20034;-73
2020/12/29 12:15:29;;;;;;;7.60;4.82;;;4.30;99.90;;;;;;5026687;28;20112;-73
2020/12/29 12:17:54;;;;;;;8.70;4.70;;;4.40;99.90;;;;;;5025817;28;20123;-74
2020/12/29 12:20:22;;;;;;;7.80;5.20;;;4.40;99.90;;;;;;5027379;28;20029;-74
2020/12/29 12:22:50;;;;;;;8.88;5.10;;;4.40;99.90;;;;;;5038441;28;20017;-74
2020/12/29 12:25:16;;;;;;;8.38;4.57;;;4.30;99.90;;;;;;5026108;28;20598;-74
2020/12/29 12:27:41;;;;;;;8.55;5.28;;;4.30;99.90;;;;;;5025792;28;20060;-74
2020/12/29 12:30:10;;;;;;;7.53;4.57;;;4.40;99.90;;;;;;5012152;28;20068;-74
2020/12/29 12:32:38;;;;;;;7.55;4.70;;;4.40;99.90;;;;;;5027440;28;20045;-74
2020/12/29 12:35:03;;;;;;;8.88;5.05;;;4.40;99.90;;;;;;5058657;28;20040;-74
2020/12/29 12:37:31;;;;;;;9.50;4.72;;;4.40;99.90;;;;;;5025781;28;20029;-74
2020/12/29 12:39:57;;;;;;;6.70;4.03;;;4.40;99.90;;;;;;5027591;28;20087;-74
2020/12/29 12:42:25;;;;;;;7.32;4.25;;;4.40;99.90;;;;;;5024730;28;20033;-74
2020/12/29 12:44:51;;;;;;;7.32;4.15;;;4.40;99.90;;;;;;5055793;28;20029;-74
2020/12/29 12:47:18;;;;;;;10.05;4.20;;;4.40;99.90;;;;;;5025399;28;20037;-75
2020/12/29 12:49:48;;;;;;;10.85;4.07;;;4.40;99.90;;;;;;5025966;28;20140;-74
2020/12/29 12:52:16;;;;;;;7.25;3.55;;;4.40;99.90;;;;;;5040492;28;20132;-74
2020/12/29 12:54:41;;;;;;;7.30;3.92;;;4.40;99.90;;;;;;5055484;28;20113;-74
2020/12/29 12:57:12;;;;;;;6.45;4.00;;;4.40;99.90;;;;;;5057758;28;20037;-75
2020/12/29 12:59:41;;;;;;;9.15;3.42;;;4.30;99.90;;;;;;5025099;28;20479;-75
2020/12/29 13:02:09;;;;;;;8.02;3.85;;;4.40;99.90;;;;;;5024657;28;20022;-75
2020/12/29 13:04:38;;;;;;;7.50;3.40;;;4.30;99.90;;;;;;5025860;28;20025;-75